createdAt,value
2022-10-30T00:02:18.945Z,100.00
2022-10-30T00:04:47.624Z,100.00
2022-10-30T00:07:16.131Z,100.00
2022-10-30T00:09:46.672Z,100.00
2022-10-30T00:12:19.062Z,100.00
2022-10-30T00:14:47.789Z,100.00
2022-10-30T00:17:24.177Z,100.00
2022-10-30T00:19:54.253Z,100.00
2022-10-30T00:22:23.106Z,100.00
2022-10-30T00:24:51.717Z,100.00
2022-10-30T00:27:23.472Z,100.00
2022-10-30T00:29:52.468Z,100.00
2022-10-30T00:32:21.011Z,100.00
2022-10-30T00:34:49.689Z,100.00
2022-10-30T00:37:20.674Z,100.00
2022-10-30T00:39:49.284Z,100.00
2022-10-30T00:42:19.411Z,100.00
2022-10-30T00:44:53.965Z,100.00
2022-10-30T00:47:36.924Z,100.00
2022-10-30T00:50:10.512Z,100.00
2022-10-30T00:52:44.232Z,100.00
2022-10-30T00:55:32.126Z,100.00
2022-10-30T00:58:03.834Z,100.00
2022-10-30T01:00:32.604Z,100.00
2022-10-30T01:03:02.116Z,100.00
2022-10-30T01:05:34.046Z,100.00
2022-10-30T01:08:09.476Z,100.00
2022-10-30T01:10:38.726Z,100.00
2022-10-30T01:13:08.499Z,100.00
2022-10-30T01:15:43.139Z,100.00
2022-10-30T01:18:20.748Z,100.00
2022-10-30T01:21:25.717Z,100.00
2022-10-30T01:24:15.357Z,100.00
2022-10-30T01:26:49.652Z,100.00
2022-10-30T01:29:33.399Z,100.00
2022-10-30T01:32:30.586Z,100.00
2022-10-30T01:35:14.241Z,100.00
2022-10-30T01:37:49.104Z,100.00
2022-10-30T01:40:20.271Z,100.00
2022-10-30T01:42:57.523Z,100.00
2022-10-30T01:45:43.894Z,100.00
2022-10-30T01:48:42.811Z,100.00
2022-10-30T01:51:23.250Z,100.00
2022-10-30T01:54:14.649Z,100.00
2022-10-30T01:56:52.292Z,100.00
2022-10-30T01:59:39.275Z,100.00
2022-10-30T02:02:10.615Z,100.00
2022-10-30T02:04:42.625Z,100.00
2022-10-30T02:07:12.742Z,100.00
2022-10-30T02:09:44.776Z,100.00
2022-10-30T02:12:16.482Z,100.00
2022-10-30T02:14:50.927Z,100.00
2022-10-30T02:17:20.862Z,100.00
2022-10-30T02:19:49.579Z,100.00
2022-10-30T02:22:18.427Z,100.00
2022-10-30T02:24:48.040Z,100.00
2022-10-30T02:27:16.701Z,100.00
2022-10-30T02:29:45.340Z,100.00
2022-10-30T02:32:13.966Z,100.00
2022-10-30T02:34:45.823Z,100.00
2022-10-30T02:37:14.361Z,100.00
2022-10-30T02:39:44.557Z,100.00
2022-10-30T02:42:14.688Z,100.00
2022-10-30T02:44:43.243Z,100.00
2022-10-30T02:47:11.892Z,100.00
2022-10-30T02:49:42.243Z,100.00
2022-10-30T02:52:10.883Z,100.00
2022-10-30T02:54:39.611Z,100.00
2022-10-30T02:57:08.182Z,100.00
2022-10-30T02:59:39.548Z,100.00
2022-10-30T03:02:11.412Z,100.00
2022-10-30T03:04:40.135Z,100.00
2022-10-30T03:07:08.836Z,100.00
2022-10-30T03:09:41.561Z,100.00
2022-10-30T03:12:10.162Z,100.00
2022-10-30T03:14:38.689Z,100.00
2022-10-30T03:17:08.497Z,100.00
2022-10-30T03:19:44.343Z,100.00
2022-10-30T03:22:14.911Z,100.00
2022-10-30T03:24:46.410Z,100.00
2022-10-30T03:27:15.013Z,100.00
2022-10-30T03:29:44.713Z,100.00
2022-10-30T03:32:13.468Z,100.00
2022-10-30T03:34:46.071Z,100.00
2022-10-30T03:37:17.506Z,100.00
2022-10-30T03:39:56.090Z,100.00
2022-10-30T03:42:24.692Z,100.00
2022-10-30T03:44:53.329Z,100.00
2022-10-30T03:47:23.344Z,100.00
2022-10-30T03:49:51.866Z,100.00
2022-10-30T03:52:24.606Z,100.00
2022-10-30T03:54:53.166Z,100.00
2022-10-30T03:57:21.751Z,100.00
2022-10-30T03:59:51.891Z,100.00
2022-10-30T04:02:22.067Z,100.00
2022-10-30T04:04:51.015Z,100.00
2022-10-30T04:07:19.511Z,100.00
2022-10-30T04:09:48.205Z,100.00
2022-10-30T04:12:16.781Z,100.00
2022-10-30T04:14:45.287Z,100.00
2022-10-30T04:17:13.868Z,100.00
2022-10-30T04:19:44.807Z,100.00
2022-10-30T04:22:13.311Z,100.00
2022-10-30T04:24:41.942Z,100.00
2022-10-30T04:27:10.529Z,100.00
2022-10-30T04:29:39.101Z,100.00
2022-10-30T04:32:07.790Z,100.00
2022-10-30T04:34:36.796Z,100.00
2022-10-30T04:37:05.395Z,100.00
2022-10-30T04:39:34.458Z,100.00
2022-10-30T04:42:03.149Z,100.00
2022-10-30T04:44:31.696Z,100.00
2022-10-30T04:47:00.243Z,100.00
2022-10-30T04:49:28.898Z,100.00
2022-10-30T04:51:57.567Z,100.00
2022-10-30T04:54:29.210Z,100.00
2022-10-30T04:56:57.970Z,100.00
2022-10-30T04:59:26.711Z,100.00
2022-10-30T05:01:55.611Z,100.00
2022-10-30T05:04:24.370Z,100.00
2022-10-30T05:06:53.107Z,100.00
2022-10-30T05:09:21.691Z,100.00
2022-10-30T05:11:50.310Z,100.00
2022-10-30T05:14:18.900Z,100.00
2022-10-30T05:16:47.609Z,100.00
2022-10-30T05:19:16.168Z,100.00
2022-10-30T05:21:44.767Z,100.00
2022-10-30T05:24:16.215Z,100.00
2022-10-30T05:26:45.427Z,100.00
2022-10-30T05:29:17.617Z,100.00
2022-10-30T05:31:49.458Z,100.00
2022-10-30T05:34:18.032Z,100.00
2022-10-30T05:36:48.190Z,100.00
2022-10-30T05:39:16.923Z,100.00
2022-10-30T05:41:45.545Z,100.00
2022-10-30T05:44:28.865Z,100.00
2022-10-30T05:46:47.005Z,100.00
2022-10-30T05:49:15.781Z,100.00
2022-10-30T05:51:44.559Z,100.00
2022-10-30T05:54:14.708Z,100.00
2022-10-30T05:56:43.364Z,100.00
2022-10-30T05:59:11.943Z,100.00
2022-10-30T06:01:40.562Z,100.00
2022-10-30T06:04:09.962Z,100.00
2022-10-30T06:06:41.327Z,100.00
2022-10-30T06:09:12.599Z,100.00
2022-10-30T06:11:41.167Z,100.00
2022-10-30T06:14:09.699Z,100.00
2022-10-30T06:16:39.962Z,100.00
2022-10-30T06:19:10.024Z,100.00
2022-10-30T06:21:40.248Z,100.00
2022-10-30T06:24:09.106Z,100.00
2022-10-30T06:26:37.714Z,100.00
2022-10-30T06:29:06.420Z,100.00
2022-10-30T06:31:35.107Z,100.00
2022-10-30T06:34:05.743Z,100.00
2022-10-30T06:36:34.364Z,100.00
2022-10-30T06:39:03.125Z,100.00
2022-10-30T06:41:31.771Z,100.00
2022-10-30T06:44:00.493Z,100.00
2022-10-30T06:46:33.624Z,100.00
2022-10-30T06:49:02.872Z,100.00
2022-10-30T06:51:31.745Z,100.00
2022-10-30T06:54:00.432Z,100.00
2022-10-30T06:56:29.072Z,100.00
2022-10-30T06:58:57.696Z,100.00
2022-10-30T07:01:26.423Z,100.00
2022-10-30T07:03:55.058Z,100.00
2022-10-30T07:06:23.690Z,100.00
2022-10-30T07:09:33.645Z,100.00
2022-10-30T07:12:06.935Z,100.00
2022-10-30T07:14:38.873Z,100.00
2022-10-30T07:17:09.118Z,100.00
2022-10-30T07:19:37.803Z,100.00
2022-10-30T07:22:08.109Z,100.00
2022-10-30T07:28:16.969Z,100.00
2022-10-30T07:30:45.644Z,100.00
2022-10-30T07:33:14.752Z,100.00
2022-10-30T07:35:49.155Z,100.00
2022-10-30T07:38:20.932Z,100.00
2022-10-30T07:40:56.108Z,100.00
2022-10-30T07:43:27.327Z,100.00
2022-10-30T07:45:56.973Z,100.00
2022-10-30T07:48:27.061Z,100.00
2022-10-30T07:50:57.486Z,100.00
2022-10-30T07:57:00.466Z,100.00
2022-10-30T07:59:29.167Z,100.00
2022-10-30T08:01:57.876Z,100.00
2022-10-30T08:04:26.490Z,100.00
2022-10-30T08:06:55.057Z,100.00
2022-10-30T08:09:27.779Z,100.00
2022-10-30T08:11:56.368Z,100.00
2022-10-30T08:14:25.024Z,100.00
2022-10-30T08:16:56.546Z,100.00
2022-10-30T08:19:25.418Z,100.00
2022-10-30T08:21:59.893Z,100.00
2022-10-30T08:24:27.670Z,100.00
2022-10-30T08:29:51.999Z,100.00
2022-10-30T08:32:20.512Z,100.00
2022-10-30T08:34:49.050Z,100.00
2022-10-30T08:37:18.363Z,100.00
2022-10-30T08:39:47.006Z,100.00
2022-10-30T08:42:15.692Z,100.00
2022-10-30T08:44:45.933Z,100.00
2022-10-30T08:47:17.572Z,100.00
2022-10-30T08:49:46.259Z,100.00
2022-10-30T08:52:19.316Z,100.00
2022-10-30T08:55:00.718Z,100.00
2022-10-30T08:57:29.376Z,100.00
2022-10-30T09:00:00.713Z,100.00
2022-10-30T09:02:31.381Z,100.00
2022-10-30T09:05:00.339Z,100.00
2022-10-30T09:07:33.344Z,100.00
2022-10-30T09:10:02.240Z,100.00
2022-10-30T09:12:34.176Z,100.00
2022-10-30T09:15:03.427Z,100.00
2022-10-30T09:17:32.249Z,100.00
2022-10-30T09:20:02.392Z,100.00
2022-10-30T09:22:34.362Z,100.00
2022-10-30T09:25:04.536Z,100.00
2022-10-30T09:27:36.362Z,100.00
2022-10-30T09:30:10.803Z,100.00
2022-10-30T09:32:43.383Z,100.00
2022-10-30T09:35:13.639Z,100.00
2022-10-30T09:37:46.072Z,100.00
2022-10-30T09:40:41.171Z,100.00
2022-10-30T09:43:27.631Z,100.00
2022-10-30T09:46:29.397Z,100.00
2022-10-30T09:49:06.903Z,100.00
2022-10-30T09:51:44.276Z,100.00
2022-10-30T09:54:24.168Z,100.00
2022-10-30T09:57:07.875Z,100.00
2022-10-30T09:59:42.056Z,100.00
2022-10-30T10:02:37.750Z,100.00
2022-10-30T10:05:18.260Z,100.00
2022-10-30T10:07:52.790Z,100.00
2022-10-30T10:10:48.651Z,100.00
2022-10-30T10:13:20.427Z,100.00
2022-10-30T10:15:53.567Z,100.00
2022-10-30T10:21:04.628Z,100.00
2022-10-30T10:23:49.890Z,100.00
2022-10-30T10:26:30.846Z,100.00
2022-10-30T10:29:10.922Z,100.00
2022-10-30T10:31:49.779Z,100.00
2022-10-30T10:34:37.791Z,100.00
2022-10-30T10:37:35.056Z,100.00
2022-10-30T10:40:27.189Z,100.00
2022-10-30T10:43:32.940Z,100.00
2022-10-30T10:46:34.132Z,100.00
2022-10-30T10:49:25.123Z,100.00
2022-10-30T10:52:02.392Z,100.00
2022-10-30T10:54:48.240Z,100.00
2022-10-30T10:57:47.010Z,100.00
2022-10-30T11:00:45.544Z,100.00
2022-10-30T11:03:25.505Z,100.00
2022-10-30T11:06:17.859Z,100.00
2022-10-30T11:08:46.855Z,100.00
2022-10-30T11:11:16.217Z,100.00
2022-10-30T11:13:47.984Z,100.00
2022-10-30T11:16:30.908Z,100.00
2022-10-30T11:19:05.484Z,100.00
2022-10-30T11:21:45.879Z,100.00
2022-10-30T11:24:34.842Z,100.00
2022-10-30T11:27:40.567Z,100.00
2022-10-30T11:30:39.458Z,100.00
2022-10-30T11:33:19.864Z,100.00
2022-10-30T11:35:50.010Z,100.00
2022-10-30T11:38:21.370Z,100.00
2022-10-30T11:40:54.614Z,100.00
2022-10-30T11:43:26.220Z,100.00
2022-10-30T11:45:56.065Z,100.00
2022-10-30T11:48:30.414Z,100.00
2022-10-30T11:51:08.856Z,100.00
2022-10-30T11:53:48.225Z,100.00
2022-10-30T11:56:33.067Z,100.00
2022-10-30T11:59:06.053Z,100.00
2022-10-30T12:01:39.468Z,88.81
2022-10-30T12:04:27.720Z,65.71
2022-10-30T12:07:11.162Z,64.39
2022-10-30T12:09:48.065Z,59.78
2022-10-30T12:15:28.364Z,47.38
2022-10-30T12:18:02.815Z,47.62
2022-10-30T12:20:34.612Z,44.48
2022-10-30T12:23:20.104Z,44.59
2022-10-30T12:26:13.912Z,43.94
2022-10-30T12:28:45.786Z,43.79
2022-10-30T12:31:21.963Z,43.38
2022-10-30T12:33:56.282Z,43.46
2022-10-30T12:36:28.336Z,44.10
2022-10-30T12:39:03.722Z,44.19
2022-10-30T12:41:50.766Z,44.41
2022-10-30T12:44:31.682Z,44.00
2022-10-30T12:50:57.452Z,43.11
2022-10-30T12:53:51.558Z,42.76
2022-10-30T12:56:32.470Z,42.37
2022-10-30T12:59:35.041Z,40.78
2022-10-30T13:02:31.848Z,39.78
2022-10-30T13:05:09.609Z,39.92
2022-10-30T13:07:50.378Z,39.41
2022-10-30T13:10:33.223Z,39.43
2022-10-30T13:13:05.222Z,39.72
2022-10-30T13:15:59.535Z,38.99
2022-10-30T13:18:34.477Z,38.04
2022-10-30T13:21:14.176Z,37.77
2022-10-30T13:24:06.409Z,38.16
2022-10-30T13:30:09.193Z,37.51
2022-10-30T13:33:03.017Z,37.53
2022-10-30T13:39:17.269Z,37.58
2022-10-30T13:42:11.359Z,37.74
2022-10-30T13:44:56.872Z,37.64
2022-10-30T13:50:44.368Z,37.95
2022-10-30T14:03:56.521Z,39.14
2022-10-30T14:06:31.071Z,39.51
2022-10-30T14:13:17.497Z,40.20
2022-10-30T14:15:54.427Z,40.58
2022-10-30T14:18:35.204Z,40.75
2022-10-30T14:21:14.081Z,41.29
2022-10-30T14:24:01.382Z,41.76
2022-10-30T14:27:22.219Z,42.04
2022-10-30T14:30:00.474Z,42.37
2022-10-30T14:35:44.818Z,43.28
2022-10-30T14:39:09.108Z,43.67
2022-10-30T14:42:38.104Z,43.89
2022-10-30T15:14:56.834Z,49.67
2022-10-30T15:20:40.815Z,50.10
2022-10-30T15:39:44.509Z,52.47
2022-10-30T15:42:13.953Z,52.61
2022-10-30T15:44:45.577Z,53.11
2022-10-30T15:47:21.088Z,53.29
2022-10-30T15:49:52.615Z,53.84
2022-10-30T15:52:27.193Z,54.16
2022-10-30T15:55:10.727Z,55.04
2022-10-30T16:02:54.084Z,56.18
2022-10-30T16:05:24.010Z,56.02
2022-10-30T16:07:55.565Z,56.72
2022-10-30T16:10:25.576Z,57.35
2022-10-30T16:12:56.547Z,57.63
2022-10-30T16:15:34.502Z,58.07
2022-10-30T16:18:25.717Z,59.23
2022-10-30T16:20:57.375Z,59.26
2022-10-30T16:23:26.056Z,59.53
2022-10-30T16:25:59.378Z,60.27
2022-10-30T16:28:36.291Z,59.64
2022-10-30T16:31:11.766Z,59.57
2022-10-30T16:33:42.831Z,59.86
2022-10-30T16:36:18.121Z,59.88
2022-10-30T16:38:50.047Z,59.55
2022-10-30T16:41:26.718Z,59.55
2022-10-30T16:44:12.092Z,60.86
2022-10-30T16:46:50.681Z,60.93
2022-10-30T16:49:28.268Z,60.34
2022-10-30T16:52:03.176Z,60.67
2022-10-30T16:54:37.572Z,61.33
2022-10-30T16:57:28.404Z,61.41
2022-10-30T16:59:58.634Z,61.78
2022-10-30T17:02:39.221Z,62.54
2022-10-30T17:05:15.465Z,63.19
2022-10-30T17:07:58.823Z,65.21
2022-10-30T17:10:42.315Z,65.03
2022-10-30T17:13:41.115Z,65.11
2022-10-30T17:16:34.086Z,64.68
2022-10-30T17:19:22.201Z,64.68
2022-10-30T17:21:56.784Z,65.12
2022-10-30T17:24:28.630Z,65.86
2022-10-30T17:27:03.089Z,66.58
2022-10-30T17:29:40.437Z,67.06
2022-10-30T17:32:20.646Z,65.71
2022-10-30T17:35:00.869Z,65.41
2022-10-30T17:37:30.154Z,65.10
2022-10-30T17:40:01.508Z,65.96
2022-10-30T17:42:30.200Z,68.19
2022-10-30T17:44:59.352Z,66.51
2022-10-30T17:47:29.963Z,65.49
2022-10-30T17:52:55.598Z,65.06
2022-10-30T17:55:35.366Z,66.49
2022-10-30T17:58:05.806Z,66.04
2022-10-30T18:00:36.021Z,67.05
2022-10-30T18:03:04.690Z,66.15
2022-10-30T18:05:36.032Z,67.06
2022-10-30T18:08:04.717Z,68.32
2022-10-30T18:10:33.319Z,68.10
2022-10-30T18:13:02.679Z,70.48
2022-10-30T18:15:39.097Z,68.71
2022-10-30T18:18:09.426Z,70.40
2022-10-30T18:20:38.860Z,71.27
2022-10-30T18:25:56.630Z,73.75
2022-10-30T18:28:44.583Z,72.92
2022-10-30T18:31:22.711Z,71.69
2022-10-30T18:33:51.445Z,68.25
2022-10-30T18:36:30.723Z,69.11
2022-10-30T18:38:59.497Z,70.57
2022-10-30T18:41:53.992Z,70.55
2022-10-30T18:44:22.656Z,68.45
2022-10-30T18:46:51.362Z,67.69
2022-10-30T18:49:21.693Z,68.81
2022-10-30T18:51:51.070Z,69.14
2022-10-30T18:54:21.088Z,67.25
2022-10-30T18:56:51.143Z,66.46
2022-10-30T18:59:19.696Z,66.22
2022-10-30T19:01:48.545Z,66.84
2022-10-30T19:04:22.197Z,66.98
2022-10-30T19:06:49.818Z,66.35
2022-10-30T19:09:21.510Z,66.70
2022-10-30T19:12:04.263Z,65.90
2022-10-30T19:14:36.151Z,65.95
2022-10-30T19:17:11.154Z,65.96
2022-10-30T19:19:39.849Z,66.40
2022-10-30T19:22:10.356Z,66.58
2022-10-30T19:24:38.947Z,65.14
2022-10-30T19:27:07.540Z,65.50
2022-10-30T19:29:36.202Z,65.70
2022-10-30T19:32:04.797Z,66.24
2022-10-30T19:34:35.042Z,66.35
2022-10-30T19:37:06.664Z,66.30
2022-10-30T19:39:35.376Z,66.15
2022-10-30T19:42:06.192Z,63.88
2022-10-30T19:44:34.777Z,63.66
2022-10-30T19:47:04.977Z,64.41
2022-10-30T19:49:33.608Z,63.65
2022-10-30T19:52:02.262Z,63.04
2022-10-30T19:54:32.137Z,62.39
2022-10-30T19:57:00.717Z,62.61
2022-10-30T19:59:29.411Z,63.11
2022-10-30T20:01:58.232Z,63.63
2022-10-30T20:04:32.968Z,63.76
2022-10-30T20:07:07.555Z,63.82
2022-10-30T20:09:36.430Z,64.03
2022-10-30T20:12:06.902Z,64.21
2022-10-30T20:14:39.917Z,63.75
2022-10-30T20:17:10.387Z,64.14
2022-10-30T20:19:39.200Z,64.08
2022-10-30T20:22:07.993Z,63.98
2022-10-30T20:24:36.680Z,65.44
2022-10-30T20:27:05.552Z,66.48
2022-10-30T20:29:38.962Z,65.39
2022-10-30T20:32:09.065Z,65.64
2022-10-30T20:34:37.655Z,65.61
2022-10-30T20:37:09.074Z,65.59
2022-10-30T20:39:37.785Z,66.64
2022-10-30T20:42:16.794Z,66.48
2022-10-30T20:44:48.446Z,67.29
2022-10-30T20:47:18.999Z,66.69
2022-10-30T20:49:49.283Z,67.12
2022-10-30T20:52:22.387Z,68.34
2022-10-30T20:58:15.461Z,69.17
2022-10-30T21:00:44.462Z,69.35
2022-10-30T21:03:15.810Z,71.23
2022-10-30T21:05:48.781Z,71.79
2022-10-30T21:08:19.031Z,71.04
2022-10-30T21:10:49.921Z,69.11
2022-10-30T21:13:24.470Z,68.78
2022-10-30T21:15:53.488Z,67.31
2022-10-30T21:18:24.041Z,66.15
2022-10-30T21:20:54.711Z,67.05
2022-10-30T21:23:26.194Z,68.12
2022-10-30T21:26:07.307Z,67.78
2022-10-30T21:28:37.639Z,68.11
2022-10-30T21:31:09.043Z,67.97
2022-10-30T21:33:49.405Z,68.38
2022-10-30T21:36:21.031Z,67.47
2022-10-30T21:38:58.861Z,66.60
2022-10-30T21:41:39.091Z,65.85
2022-10-30T21:44:15.473Z,65.97
2022-10-30T21:46:44.546Z,64.71
2022-10-30T21:49:16.642Z,65.65
2022-10-30T21:51:49.393Z,66.68
2022-10-30T21:54:19.861Z,65.79
2022-10-30T21:56:50.397Z,66.25
2022-10-30T21:59:19.401Z,66.08
2022-10-30T22:01:48.397Z,66.00
2022-10-30T22:04:20.253Z,66.19
2022-10-30T22:06:51.970Z,65.92
2022-10-30T22:09:20.645Z,67.04
2022-10-30T22:11:52.326Z,64.91
2022-10-30T22:14:22.043Z,65.22
2022-10-30T22:16:52.192Z,65.94
2022-10-30T22:19:21.304Z,64.87
2022-10-30T22:21:50.317Z,64.20
2022-10-30T22:24:19.179Z,64.02
2022-10-30T22:26:47.930Z,64.36
2022-10-30T22:29:16.645Z,65.64
2022-10-30T22:31:53.168Z,66.31
2022-10-30T22:34:21.666Z,66.60
2022-10-30T22:36:51.865Z,66.59
2022-10-30T22:39:20.449Z,66.35
2022-10-30T22:41:50.578Z,66.93
2022-10-30T22:44:20.795Z,66.09
2022-10-30T22:46:50.929Z,66.46
2022-10-30T22:49:23.021Z,67.56
2022-10-30T22:51:51.611Z,67.49
2022-10-30T22:54:21.913Z,66.35
2022-10-30T22:56:50.682Z,65.90
2022-10-30T22:59:19.410Z,65.29
2022-10-30T23:01:47.984Z,64.45
2022-10-30T23:04:18.459Z,64.96
2022-10-30T23:06:49.808Z,65.64
2022-10-30T23:09:22.431Z,64.77
2022-10-30T23:12:01.863Z,64.33
2022-10-30T23:14:36.133Z,64.31
2022-10-30T23:17:04.943Z,65.02
2022-10-30T23:19:35.526Z,64.79
2022-10-30T23:22:04.233Z,64.73
2022-10-30T23:24:34.121Z,65.05
2022-10-30T23:27:04.493Z,67.19
2022-10-30T23:29:33.356Z,66.84
2022-10-30T23:32:08.782Z,68.63
2022-10-30T23:34:40.664Z,69.10
2022-10-30T23:37:09.612Z,67.70
2022-10-30T23:39:38.602Z,67.86
2022-10-30T23:42:07.535Z,68.28
2022-10-30T23:44:37.517Z,67.29
2022-10-30T23:47:06.510Z,67.54
2022-10-30T23:49:41.159Z,68.64
2022-10-30T23:52:11.710Z,69.48
2022-10-30T23:54:42.220Z,72.97
2022-10-30T23:57:14.201Z,76.11
2022-10-30T23:59:43.458Z,77.31
